Time;durP1;ratioP1;P1;durP2;ratioP2;P2;SDS_P1;SDS_P2;PMS_P1;PMS_P2;Temp;Humidity;BMP_temperature;BMP_pressure;BME280_temperature;BME280_humidity;BME280_pressure;Samples;Min_cycle;Max_cycle;Signal;HPM_P1;HPM_P2
2021/01/15 00:00:38;;;;;;;;;;;0.40;99.90;;;;;;5056282;28;19913;-80
2021/01/15 00:03:04;;;;;;;;;;;0.40;99.90;;;;;;5056085;28;19912;-80
2021/01/15 00:05:29;;;;;;;;;;;0.40;99.90;;;;;;5053873;28;19913;-80
2021/01/15 00:07:54;;;;;;;;;;;0.40;99.90;;;;;;5055760;28;19909;-80
2021/01/15 00:10:20;;;;;;;;;;;0.30;99.90;;;;;;5055504;28;19963;-80
2021/01/15 00:12:45;;;;;;;;;;;0.30;99.90;;;;;;5056516;28;19920;-80
2021/01/15 00:15:11;;;;;;;;;;;0.30;99.90;;;;;;5056706;28;20355;-80
2021/01/15 00:17:36;;;;;;;;;;;0.30;99.90;;;;;;5056057;28;19913;-80
2021/01/15 00:20:03;;;;;;;;;;;0.30;99.90;;;;;;5054730;28;19920;-80
2021/01/15 00:22:28;;;;;;;;;;;0.30;99.90;;;;;;5055203;28;19919;-80
2021/01/15 00:24:54;;;;;;;;;;;0.20;99.90;;;;;;5054012;28;20320;-80
2021/01/15 00:27:19;;;;;;;;;;;0.20;99.90;;;;;;5056286;28;19992;-80
2021/01/15 00:29:45;;;;;;;;;;;0.20;99.90;;;;;;5055702;28;19935;-80
2021/01/15 00:32:10;;;;;;;;;;;0.10;99.90;;;;;;5070926;28;19921;-80
2021/01/15 00:34:36;;;;;;;;;;;0.10;99.90;;;;;;5055863;28;20297;-79
2021/01/15 00:37:01;;;;;;;;;;;0.10;99.90;;;;;;5055263;28;19913;-80
2021/01/15 00:39:26;;;;;;;;;;;0.10;99.90;;;;;;5054805;28;19916;-80
2021/01/15 00:41:52;;;;;;;;;;;0.00;99.90;;;;;;5046577;28;19912;-80
2021/01/15 00:44:17;;;;;;;;;;;0.00;99.90;;;;;;5054313;28;19912;-80
2021/01/15 00:46:46;;;;;;;;;;;0.00;99.90;;;;;;5037353;28;19909;-80
2021/01/15 00:49:14;;;;;;;;;;;0.00;99.90;;;;;;5055095;28;19917;-80
2021/01/15 00:51:45;;;;;;;;;;;-0.10;99.90;;;;;;5056290;28;19920;-80
2021/01/15 00:54:11;;;;;;;;;;;-0.10;99.90;;;;;;5053894;28;19932;-80
2021/01/15 00:56:36;;;;;;;;;;;-0.10;99.90;;;;;;5056082;28;19908;-80
2021/01/15 00:59:02;;;;;;;;;;;-0.10;99.90;;;;;;5053413;28;19917;-80
2021/01/15 01:01:27;;;;;;;;;;;-0.10;99.90;;;;;;5055681;28;19916;-80
2021/01/15 01:03:53;;;;;;;;;;;-0.10;99.90;;;;;;5044367;28;19920;-79
2021/01/15 01:06:19;;;;;;;;;;;-0.10;99.90;;;;;;5063641;28;20418;-80
2021/01/15 01:08:45;;;;;;;;;;;-0.10;99.90;;;;;;5055239;28;19923;-79
2021/01/15 01:11:14;;;;;;;;;;;-0.10;99.90;;;;;;5054117;28;20384;-80
2021/01/15 01:13:40;;;;;;;;;;;-0.10;99.90;;;;;;5053176;28;19912;-80
2021/01/15 01:16:06;;;;;;;;;;;-0.10;99.90;;;;;;5054030;28;19909;-80
2021/01/15 01:18:34;;;;;;;;;;;-0.10;99.90;;;;;;5036342;28;19959;-80
2021/01/15 01:21:00;;;;;;;;;;;-0.10;99.90;;;;;;5054453;28;19913;-80
2021/01/15 01:23:26;;;;;;;;;;;-0.10;99.90;;;;;;5037021;28;20365;-80
2021/01/15 01:25:51;;;;;;;;;;;-0.10;99.90;;;;;;5053025;28;19955;-80
2021/01/15 01:28:18;;;;;;;;;;;-0.10;99.90;;;;;;5053374;28;19913;-80
2021/01/15 01:30:43;;;;;;;;;;;-0.10;99.90;;;;;;5054433;28;19912;-80
2021/01/15 01:33:09;;;;;;;;;;;-0.10;99.90;;;;;;5052181;28;20456;-80
2021/01/15 01:35:34;;;;;;;;;;;-0.10;99.90;;;;;;5056494;28;20404;-80
2021/01/15 01:38:00;;;;;;;;;;;-0.20;99.90;;;;;;5056773;28;20027;-80
2021/01/15 01:40:25;;;;;;;;;;;-0.20;99.90;;;;;;5057318;28;19916;-80
2021/01/15 01:42:51;;;;;;;;;;;-0.20;99.90;;;;;;5057119;28;19917;-80
2021/01/15 01:45:16;;;;;;;;;;;-0.20;99.90;;;;;;5056762;28;19909;-80
2021/01/15 01:47:42;;;;;;;;;;;-0.20;99.90;;;;;;5057110;28;20023;-80
2021/01/15 01:50:08;;;;;;;;;;;-0.30;99.90;;;;;;5056752;28;19912;-80
2021/01/15 01:52:34;;;;;;;;;;;-0.30;99.90;;;;;;5054364;28;19927;-80
2021/01/15 01:54:59;;;;;;;;;;;-0.30;99.90;;;;;;5055162;28;20003;-80
2021/01/15 01:57:25;;;;;;;;;;;-0.30;99.90;;;;;;5057155;28;19944;-80
2021/01/15 01:59:50;;;;;;;;;;;-0.40;99.90;;;;;;5054034;28;19916;-80
2021/01/15 02:02:16;;;;;;;;;;;-0.40;99.90;;;;;;5055231;28;19969;-80
2021/01/15 02:04:42;;;;;;;;;;;-0.40;99.90;;;;;;5056943;28;20424;-80
2021/01/15 02:07:07;;;;;;;;;;;-0.40;99.90;;;;;;5056500;28;19994;-80
2021/01/15 02:09:41;;;;;;;;;;;-0.40;99.90;;;;;;5038075;28;19917;-80
2021/01/15 02:12:16;;;;;;;;;;;-0.40;99.90;;;;;;5055744;28;19967;-80
2021/01/15 02:15:01;;;;;;;;;;;-0.40;99.90;;;;;;5054903;28;19913;-80
2021/01/15 02:17:29;;;;;;;;;;;-0.40;99.90;;;;;;5055304;28;19908;-80
2021/01/15 02:19:57;;;;;;;;;;;-0.40;99.90;;;;;;5056448;28;19909;-80
2021/01/15 02:22:41;;;;;;;;;;;-0.40;99.90;;;;;;5056151;28;19935;-80
2021/01/15 02:25:23;;;;;;;;;;;-0.40;99.90;;;;;;5035670;28;20351;-80
2021/01/15 02:27:57;;;;;;;;;;;-0.40;99.90;;;;;;5038535;28;19921;-80
2021/01/15 02:30:40;;;;;;;;;;;-0.40;99.90;;;;;;5055066;28;19917;-79
2021/01/15 02:33:14;;;;;;;;;;;-0.40;99.90;;;;;;5054684;28;19913;-80
2021/01/15 02:35:43;;;;;;;;;;;-0.40;99.90;;;;;;5055942;28;19915;-80
2021/01/15 02:38:13;;;;;;;;;;;-0.40;99.90;;;;;;5057314;28;19908;-80
2021/01/15 02:40:54;;;;;;;;;;;-0.40;99.90;;;;;;5056992;28;19952;-80
2021/01/15 02:43:21;;;;;;;;;;;-0.30;99.90;;;;;;5056497;28;19960;-80
2021/01/15 02:45:47;;;;;;;;;;;-0.30;99.90;;;;;;5056849;28;19912;-79
2021/01/15 02:48:15;;;;;;;;;;;-0.30;99.90;;;;;;5046810;28;19959;-80
2021/01/15 02:50:45;;;;;;;;;;;-0.20;99.90;;;;;;5057470;28;19946;-80
2021/01/15 02:53:11;;;;;;;;;;;-0.20;99.90;;;;;;5046167;28;19912;-80
2021/01/15 02:55:36;;;;;;;;;;;-0.10;99.90;;;;;;5077811;28;19924;-80
2021/01/15 02:58:02;;;;;;;;;;;-0.10;99.90;;;;;;5061919;28;19920;-80
2021/01/15 03:00:27;;;;;;;;;;;0.00;99.90;;;;;;5058175;28;19909;-80
2021/01/15 03:03:05;;;;;;;;;;;0.00;99.90;;;;;;5045985;28;19920;-79
2021/01/15 03:05:33;;;;;;;;;;;0.00;99.90;;;;;;5057256;28;20400;-79
2021/01/15 03:08:03;;;;;;;;;;;0.10;99.90;;;;;;5057531;28;19912;-79
2021/01/15 03:10:29;;;;;;;;;;;0.20;99.90;;;;;;5041286;28;20300;-79
2021/01/15 03:12:55;;;;;;;;;;;0.20;99.90;;;;;;5057971;28;19919;-80
2021/01/15 03:15:22;;;;;;;;;;;0.30;99.90;;;;;;5039692;28;19971;-80
2021/01/15 03:17:49;;;;;;;;;;;0.30;99.90;;;;;;5056957;28;19920;-79
2021/01/15 03:20:14;;;;;;;;;;;0.30;99.90;;;;;;5040294;28;19996;-79
2021/01/15 03:22:44;;;;;;;;;;;0.40;99.90;;;;;;5049354;28;20349;-81
2021/01/15 03:25:10;;;;;;;;;;;0.40;99.90;;;;;;5056744;28;19913;-79
2021/01/15 03:27:50;;;;;;;;;;;0.50;99.90;;;;;;5057691;28;19963;-79
2021/01/15 03:30:22;;;;;;;;;;;0.50;99.90;;;;;;5036165;28;19913;-80
2021/01/15 03:32:49;;;;;;;;;;;0.60;99.90;;;;;;5040185;28;19913;-79
2021/01/15 03:35:23;;;;;;;;;;;0.60;99.90;;;;;;5056603;28;20376;-81
2021/01/15 03:37:49;;;;;;;;;;;0.70;99.90;;;;;;5050026;28;19929;-80
2021/01/15 03:40:14;;;;;;;;;;;0.80;99.90;;;;;;5055956;28;19915;-80
2021/01/15 03:42:40;;;;;;;;;;;0.80;99.90;;;;;;5056758;28;19917;-79
2021/01/15 03:45:06;;;;;;;;;;;0.80;99.90;;;;;;5055692;28;19909;-79
2021/01/15 03:47:31;;;;;;;;;;;0.80;99.90;;;;;;5056635;28;19920;-79
2021/01/15 03:49:58;;;;;;;;;;;0.80;99.90;;;;;;5058215;28;19913;-80
2021/01/15 03:52:23;;;;;;;;;;;0.90;99.90;;;;;;5055162;28;19916;-78
2021/01/15 03:54:48;;;;;;;;;;;0.90;99.90;;;;;;5038977;28;20007;-78
2021/01/15 03:57:14;;;;;;;;;;;0.90;99.90;;;;;;5042186;28;19920;-79
2021/01/15 03:59:39;;;;;;;;;;;0.90;99.90;;;;;;5056610;28;19974;-80
2021/01/15 04:02:05;;;;;;;;;;;0.90;99.90;;;;;;5038501;28;19913;-78
2021/01/15 04:04:31;;;;;;;;;;;1.00;99.90;;;;;;5036537;28;19912;-79
2021/01/15 04:06:58;;;;;;;;;;;1.00;99.90;;;;;;5046797;28;19958;-80
2021/01/15 04:09:23;;;;;;;;;;;1.00;99.90;;;;;;5055894;28;20380;-78
2021/01/15 04:11:49;;;;;;;;;;;1.00;99.90;;;;;;5056156;28;19917;-80
2021/01/15 04:14:14;;;;;;;;;;;1.00;99.90;;;;;;5057743;28;19931;-80
2021/01/15 04:16:40;;;;;;;;;;;1.00;99.90;;;;;;5037858;28;19924;-80
2021/01/15 04:19:05;;;;;;;;;;;1.10;99.90;;;;;;5039649;28;20400;-79
2021/01/15 04:21:31;;;;;;;;;;;1.10;99.90;;;;;;5039782;28;19955;-80
2021/01/15 04:23:56;;;;;;;;;;;1.10;99.90;;;;;;5056461;28;20324;-80
2021/01/15 04:26:22;;;;;;;;;;;1.10;99.90;;;;;;5058391;28;19936;-79
2021/01/15 04:28:49;;;;;;;;;;;1.10;99.90;;;;;;5061313;28;19909;-79
2021/01/15 04:31:16;;;;;;;;;;;1.10;99.90;;;;;;5058036;28;19925;-79
2021/01/15 04:33:41;;;;;;;;;;;1.20;99.90;;;;;;5036769;28;20297;-79
2021/01/15 04:36:07;;;;;;;;;;;1.20;99.90;;;;;;5052522;28;19920;-79
2021/01/15 04:38:37;;;;;;;;;;;1.20;99.90;;;;;;5036474;28;19940;-79
2021/01/15 04:41:02;;;;;;;;;;;1.20;99.90;;;;;;5053337;28;19913;-79
2021/01/15 04:43:28;;;;;;;;;;;1.20;99.90;;;;;;5036266;28;19944;-79
2021/01/15 04:45:54;;;;;;;;;;;1.20;99.90;;;;;;5053579;28;20365;-79
2021/01/15 04:48:20;;;;;;;;;;;1.30;99.90;;;;;;5054465;28;19913;-79
2021/01/15 04:50:46;;;;;;;;;;;1.20;99.90;;;;;;5052613;28;20023;-79
2021/01/15 04:53:13;;;;;;;;;;;1.20;99.90;;;;;;5036185;28;19960;-79
2021/01/15 04:55:41;;;;;;;;;;;1.30;99.90;;;;;;5053557;28;19970;-79
2021/01/15 04:58:07;;;;;;;;;;;1.30;99.90;;;;;;5054561;28;19913;-79
2021/01/15 05:00:33;;;;;;;;;;;1.30;99.90;;;;;;5036115;28;19975;-79
2021/01/15 05:02:59;;;;;;;;;;;1.30;99.90;;;;;;5054330;28;20377;-79
2021/01/15 05:05:26;;;;;;;;;;;1.30;99.90;;;;;;5040253;28;19962;-79
2021/01/15 05:07:55;;;;;;;;;;;1.30;99.90;;;;;;5051064;28;19920;-80
2021/01/15 05:10:22;;;;;;;;;;;1.30;99.90;;;;;;5054331;28;19932;-79
2021/01/15 05:12:50;;;;;;;;;;;1.40;99.90;;;;;;5056330;28;20003;-79
2021/01/15 05:15:15;;;;;;;;;;;1.30;99.90;;;;;;5046380;28;19913;-79
2021/01/15 05:17:41;;;;;;;;;;;1.30;99.90;;;;;;5057377;28;19975;-79
2021/01/15 05:20:07;;;;;;;;;;;1.30;99.90;;;;;;5057557;28;19982;-79
2021/01/15 05:22:33;;;;;;;;;;;1.30;99.90;;;;;;5058375;28;19931;-80
2021/01/15 05:24:58;;;;;;;;;;;1.30;99.90;;;;;;5057023;28;19921;-79
2021/01/15 05:27:40;;;;;;;;;;;1.30;99.90;;;;;;5056859;28;19912;-79
2021/01/15 05:30:11;;;;;;;;;;;1.30;99.90;;;;;;5045418;28;20352;-79
2021/01/15 05:32:37;;;;;;;;;;;1.30;99.90;;;;;;5058203;28;19908;-80
2021/01/15 05:35:03;;;;;;;;;;;1.30;99.90;;;;;;5056576;28;19913;-79
2021/01/15 05:37:29;;;;;;;;;;;1.30;99.90;;;;;;5058821;28;19958;-79
2021/01/15 05:39:54;;;;;;;;;;;1.30;99.90;;;;;;5057096;28;19912;-77
2021/01/15 05:42:19;;;;;;;;;;;1.30;99.90;;;;;;5040197;28;19920;-79
2021/01/15 05:44:45;;;;;;;;;;;1.30;99.90;;;;;;5056461;28;20007;-79
2021/01/15 05:47:10;;;;;;;;;;;1.30;99.90;;;;;;5056031;28;19919;-78
2021/01/15 05:49:36;;;;;;;;;;;1.30;99.90;;;;;;5049955;28;19962;-79
2021/01/15 05:52:05;;;;;;;;;;;1.30;99.90;;;;;;5056848;28;20404;-79
2021/01/15 05:54:32;;;;;;;;;;;1.30;99.90;;;;;;5056177;28;19916;-79
2021/01/15 05:56:59;;;;;;;;;;;1.30;99.90;;;;;;5034335;28;20409;-80
2021/01/15 05:59:24;;;;;;;;;;;1.30;99.90;;;;;;5054444;28;19913;-79
2021/01/15 06:01:53;;;;;;;;;;;1.40;99.90;;;;;;5039910;28;19913;-79
2021/01/15 06:04:31;;;;;;;;;;;1.40;99.90;;;;;;5038473;28;19912;-79
2021/01/15 06:06:57;;;;;;;;;;;1.40;99.90;;;;;;5039857;28;20003;-80
2021/01/15 06:09:23;;;;;;;;;;;1.40;99.90;;;;;;5040039;28;20411;-80
2021/01/15 06:11:49;;;;;;;;;;;1.40;99.90;;;;;;5058955;28;19913;-81
2021/01/15 06:14:22;;;;;;;;;;;1.40;99.90;;;;;;5059922;28;19913;-80
2021/01/15 06:16:48;;;;;;;;;;;1.40;99.90;;;;;;5042378;28;19932;-80
2021/01/15 06:19:14;;;;;;;;;;;1.40;99.90;;;;;;5058202;28;20384;-80
2021/01/15 06:21:50;;;;;;;;;;;1.50;99.90;;;;;;5039481;28;19999;-80
2021/01/15 06:24:19;;;;;;;;;;;1.50;99.90;;;;;;5057882;28;19919;-80
2021/01/15 06:26:57;;;;;;;;;;;1.50;99.90;;;;;;5047565;28;19919;-80
2021/01/15 06:29:25;;;;;;;;;;;1.50;99.90;;;;;;5056208;28;19944;-80
2021/01/15 06:31:51;;;;;;;;;;;1.50;99.90;;;;;;5057669;28;19923;-81
2021/01/15 06:34:17;;;;;;;;;;;1.50;99.90;;;;;;5058385;28;19952;-80
2021/01/15 06:36:50;;;;;;;;;;;1.50;99.90;;;;;;5041002;28;19955;-80
2021/01/15 06:39:16;;;;;;;;;;;1.60;99.90;;;;;;5058189;28;20381;-80
2021/01/15 06:41:42;;;;;;;;;;;1.60;99.90;;;;;;5056743;28;19923;-80
2021/01/15 06:44:08;;;;;;;;;;;1.70;99.90;;;;;;5039726;28;19917;-80
2021/01/15 06:46:34;;;;;;;;;;;1.70;99.90;;;;;;5057175;28;19909;-80
2021/01/15 06:49:04;;;;;;;;;;;1.70;99.90;;;;;;5057092;28;19978;-80
2021/01/15 06:51:34;;;;;;;;;;;1.70;99.90;;;;;;5038687;28;20454;-80
2021/01/15 06:54:05;;;;;;;;;;;1.80;99.90;;;;;;5057841;28;19920;-80
2021/01/15 06:56:36;;;;;;;;;;;1.80;99.90;;;;;;5056507;28;19920;-80
2021/01/15 06:59:09;;;;;;;;;;;1.80;99.90;;;;;;5055523;28;20447;-80
2021/01/15 07:01:50;;;;;;;;;;;1.80;99.90;;;;;;5038817;28;19957;-80
2021/01/15 07:04:24;;;;;;;;;;;1.80;99.90;;;;;;5057445;28;19919;-80
2021/01/15 07:07:08;;;;;;;;;;;1.80;99.90;;;;;;5037851;28;19909;-80
2021/01/15 07:09:34;;;;;;;;;;;1.90;99.90;;;;;;5048910;28;19919;-81
2021/01/15 07:12:03;;;;;;;;;;;1.80;99.90;;;;;;5058582;28;20039;-81
2021/01/15 07:14:29;;;;;;;;;;;1.90;99.90;;;;;;5057787;28;19913;-81
2021/01/15 07:16:56;;;;;;;;;;;2.00;99.90;;;;;;5047310;28;19992;-81
2021/01/15 07:19:35;;;;;;;;;;;2.00;99.90;;;;;;5055402;28;19983;-81
2021/01/15 07:22:00;;;;;;;;;;;2.10;99.90;;;;;;5057358;28;20391;-81
2021/01/15 07:24:36;;;;;;;;;;;2.10;99.90;;;;;;5055737;28;19913;-81
2021/01/15 07:27:02;;;;;;;;;;;2.10;99.90;;;;;;5057901;28;19978;-80
2021/01/15 07:29:29;;;;;;;;;;;2.10;99.90;;;;;;5055607;28;20377;-81
2021/01/15 07:31:59;;;;;;;;;;;2.20;99.90;;;;;;5057191;28;19913;-81
2021/01/15 07:34:26;;;;;;;;;;;2.20;99.90;;;;;;5054655;28;20008;-81
2021/01/15 07:36:51;;;;;;;;;;;2.20;99.90;;;;;;5056679;28;20389;-81
2021/01/15 07:39:23;;;;;;;;;;;2.20;99.90;;;;;;5047446;28;19913;-81
2021/01/15 07:41:52;;;;;;;;;;;2.20;99.90;;;;;;5056963;28;20000;-81
2021/01/15 07:44:21;;;;;;;;;;;2.30;99.90;;;;;;5038078;28;19913;-81
2021/01/15 07:46:56;;;;;;;;;;;2.30;99.90;;;;;;5057529;28;19916;-81
2021/01/15 07:49:22;;;;;;;;;;;2.30;99.90;;;;;;5056981;28;20007;-81
2021/01/15 07:52:03;;;;;;;;;;;2.30;99.90;;;;;;5054800;28;19917;-81
2021/01/15 07:54:49;;;;;;;;;;;2.30;99.90;;;;;;5052598;28;20339;-81
2021/01/15 07:57:15;;;;;;;;;;;2.30;99.90;;;;;;5055061;28;19909;-81
2021/01/15 07:59:40;;;;;;;;;;;2.30;99.90;;;;;;5053710;28;19933;-81
2021/01/15 08:02:07;;;;;;;;;;;2.30;99.90;;;;;;5036720;28;20452;-81
2021/01/15 08:04:32;;;;;;;;;;;2.30;99.90;;;;;;5051151;28;19913;-81
2021/01/15 08:07:08;;;;;;;;;;;2.30;99.90;;;;;;5051706;28;19924;-80
2021/01/15 08:09:40;;;;;;;;;;;2.30;99.90;;;;;;5034748;28;19913;-81
2021/01/15 08:12:06;;;;;;;;;;;2.40;99.90;;;;;;5041050;28;19916;-81
2021/01/15 08:14:32;;;;;;;;;;;2.40;99.90;;;;;;5033050;28;20345;-81
2021/01/15 08:16:57;;;;;;;;;;;2.40;99.90;;;;;;5054559;28;19908;-81
2021/01/15 08:19:24;;;;;;;;;;;2.40;99.90;;;;;;5054488;28;19908;-81
2021/01/15 08:21:51;;;;;;;;;;;2.40;99.90;;;;;;5035417;28;20265;-80
2021/01/15 08:24:22;;;;;;;;;;;2.40;99.90;;;;;;5047024;28;20420;-79
2021/01/15 08:26:54;;;;;;;;;;;2.50;99.90;;;;;;5051277;28;19971;-79
2021/01/15 08:29:21;;;;;;;;;;;2.50;99.90;;;;;;5050296;28;19920;-80
2021/01/15 08:31:47;;;;;;;;;;;2.60;99.90;;;;;;5051454;28;19925;-80
2021/01/15 08:34:13;;;;;;;;;;;2.60;99.90;;;;;;5047243;28;20495;-79
2021/01/15 08:36:43;;;;;;;;;;;2.60;99.90;;;;;;5034534;28;19920;-80
2021/01/15 08:39:09;;;;;;;;;;;2.60;99.90;;;;;;5033219;28;20285;-79
2021/01/15 08:41:35;;;;;;;;;;;2.60;99.90;;;;;;5049376;28;19919;-80
2021/01/15 08:44:00;;;;;;;;;;;2.70;99.90;;;;;;5038282;28;19924;-81
2021/01/15 08:46:26;;;;;;;;;;;2.70;99.90;;;;;;5051458;28;20000;-80
2021/01/15 08:48:51;;;;;;;;;;;2.70;99.90;;;;;;5055714;28;19928;-81
2021/01/15 08:51:20;;;;;;;;;;;2.80;99.90;;;;;;5047877;28;19970;-81
2021/01/15 08:54:04;;;;;;;;;;;2.80;99.90;;;;;;5054733;28;20293;-81
2021/01/15 08:56:30;;;;;;;;;;;2.90;99.90;;;;;;5033069;28;19924;-81
2021/01/15 08:58:55;;;;;;;;;;;2.90;99.90;;;;;;5041016;28;19913;-81
2021/01/15 09:01:28;;;;;;;;;;;3.00;99.90;;;;;;5054234;28;20269;-81
2021/01/15 09:03:55;;;;;;;;;;;3.00;99.90;;;;;;5049309;28;19943;-81
2021/01/15 09:06:22;;;;;;;;;;;3.00;99.90;;;;;;5048499;28;19921;-81
2021/01/15 09:08:48;;;;;;;;;;;3.10;99.90;;;;;;5055503;28;19921;-81
2021/01/15 09:11:13;;;;;;;;;;;3.20;99.90;;;;;;5047042;28;20430;-81
2021/01/15 09:13:39;;;;;;;;;;;3.20;99.90;;;;;;5053486;28;19918;-81
2021/01/15 09:16:05;;;;;;;;;;;3.30;99.90;;;;;;5050021;28;19986;-82
2021/01/15 09:18:30;;;;;;;;;;;3.30;99.90;;;;;;5051497;28;19919;-82
2021/01/15 09:20:56;;;;;;;;;;;3.40;99.90;;;;;;5055322;28;19935;-81
2021/01/15 09:23:21;;;;;;;;;;;3.40;99.90;;;;;;5048935;28;19912;-82
2021/01/15 09:25:47;;;;;;;;;;;3.40;99.90;;;;;;5040020;28;19909;-82
2021/01/15 09:28:12;;;;;;;;;;;3.40;99.90;;;;;;5049664;28;19912;-82
2021/01/15 09:30:37;;;;;;;;;;;3.50;99.90;;;;;;5047844;28;19964;-82
2021/01/15 09:33:03;;;;;;;;;;;3.50;99.90;;;;;;5053346;28;19913;-82
2021/01/15 09:35:29;;;;;;;;;;;3.50;99.90;;;;;;5058730;28;19908;-82
2021/01/15 09:37:54;;;;;;;;;;;3.40;99.90;;;;;;5044186;28;19913;-82
2021/01/15 09:40:20;;;;;;;;;;;3.40;99.90;;;;;;5041851;28;19916;-82
2021/01/15 09:42:48;;;;;;;;;;;3.40;99.90;;;;;;5059495;28;19912;-82
2021/01/15 09:45:14;;;;;;;;;;;3.50;99.90;;;;;;5052624;28;19937;-82
2021/01/15 09:47:42;;;;;;;;;;;3.50;99.90;;;;;;5041755;28;19913;-82
2021/01/15 09:50:08;;;;;;;;;;;3.40;99.90;;;;;;5060295;28;19913;-82
2021/01/15 09:52:36;;;;;;;;;;;3.40;99.90;;;;;;5059479;28;19916;-82
2021/01/15 09:55:01;;;;;;;;;;;3.40;99.90;;;;;;5056730;28;19931;-82
2021/01/15 09:57:26;;;;;;;;;;;3.40;99.90;;;;;;5041895;28;19956;-82
2021/01/15 09:59:52;;;;;;;;;;;3.40;99.90;;;;;;5047248;28;19913;-82
2021/01/15 10:02:17;;;;;;;;;;;3.40;99.90;;;;;;5043789;28;19917;-83
2021/01/15 10:04:43;;;;;;;;;;;3.40;99.90;;;;;;5056660;28;19909;-82
2021/01/15 10:07:11;;;;;;;;;;;3.40;99.90;;;;;;5057809;28;20269;-82
2021/01/15 10:09:36;;;;;;;;;;;3.40;99.90;;;;;;5046195;28;20294;-82
2021/01/15 10:12:02;;;;;;;;;;;3.40;99.90;;;;;;5058460;28;19962;-82
2021/01/15 10:14:27;;;;;;;;;;;3.50;99.90;;;;;;5060729;28;19913;-82
2021/01/15 10:16:53;;;;;;;;;;;3.50;99.90;;;;;;5052524;28;20292;-82
2021/01/15 10:19:21;;;;;;;;;;;3.50;99.90;;;;;;5046129;28;19980;-82
2021/01/15 10:21:47;;;;;;;;;;;3.60;99.90;;;;;;5056309;28;19931;-82
2021/01/15 10:24:13;;;;;;;;;;;3.70;99.90;;;;;;5058933;28;19963;-83
2021/01/15 10:26:40;;;;;;;;;;;3.70;99.90;;;;;;5051988;28;19995;-82
2021/01/15 10:29:10;;;;;;;;;;;3.90;99.90;;;;;;5059320;28;19965;-82
2021/01/15 10:31:47;;;;;;;;;;;4.00;99.90;;;;;;5057189;28;19956;-82
2021/01/15 10:34:13;;;;;;;;;;;4.10;99.90;;;;;;5050068;28;19924;-82
2021/01/15 10:36:42;;;;;;;;;;;4.30;99.90;;;;;;5039697;28;19913;-82
2021/01/15 10:39:08;;;;;;;;;;;4.50;99.90;;;;;;5040457;28;19939;-82
2021/01/15 10:41:34;;;;;;;;;;;4.80;99.90;;;;;;5047951;28;20003;-82
2021/01/15 10:44:00;;;;;;;;;;;5.10;99.90;;;;;;5057677;28;19916;-82
2021/01/15 10:46:32;;;;;;;;;;;5.40;99.90;;;;;;5047095;28;19920;-82
2021/01/15 10:48:58;;;;;;;;;;;5.60;99.90;;;;;;5059624;28;19913;-82
2021/01/15 10:51:23;;;;;;;;;;;5.70;99.90;;;;;;5053601;28;20020;-82
2021/01/15 10:53:49;;;;;;;;;;;5.70;99.90;;;;;;5053864;28;19921;-82
2021/01/15 10:56:14;;;;;;;;;;;5.80;99.90;;;;;;5059784;28;19917;-82
2021/01/15 10:58:40;;;;;;;;;;;6.00;99.90;;;;;;5095327;23;19924;-86
2021/01/15 11:01:05;;;;;;;;;;;6.30;99.90;;;;;;5077104;28;20460;-87
2021/01/15 11:03:31;;;;;;;;;;;6.60;99.90;;;;;;5077811;28;20299;-90
2021/01/15 11:05:56;;;;;;;;;;;6.90;99.90;;;;;;5076194;28;19919;-87
2021/01/15 11:08:22;;;;;;;;;;;7.10;99.90;;;;;;5067211;28;19920;-90
2021/01/15 11:10:47;;;;;;;;;;;7.20;99.90;;;;;;5073677;28;19924;-89
2021/01/15 11:13:12;;;;;;;;;;;7.20;99.90;;;;;;5074213;28;20382;-89
2021/01/15 11:15:38;;;;;;;;;;;7.20;99.90;;;;;;5074364;28;20311;-89
2021/01/15 11:18:03;;;;;;;;;;;7.20;99.90;;;;;;5073383;28;19952;-90
2021/01/15 11:20:29;;;;;;;;;;;7.20;99.90;;;;;;5106947;28;19912;-89
2021/01/15 11:22:54;;;;;;;;;;;7.20;99.90;;;;;;5094703;28;20392;-89
2021/01/15 11:25:20;;;;;;;;;;;7.30;99.90;;;;;;5074171;28;20380;-90
2021/01/15 11:27:45;;;;;;;;;;;7.40;99.90;;;;;;5069098;28;20384;-89
2021/01/15 11:30:11;;;;;;;;;;;7.60;99.90;;;;;;5074239;28;19951;-90
2021/01/15 11:32:38;;;;;;;;;;;7.80;99.90;;;;;;5073010;28;19912;-90
2021/01/15 11:35:03;;;;;;;;;;;8.10;99.90;;;;;;5096243;28;19917;-89
2021/01/15 11:37:33;;;;;;;;;;;8.30;99.90;;;;;;5052556;28;20381;-90
2021/01/15 11:39:58;;;;;;;;;;;8.50;99.90;;;;;;5070613;28;19927;-89
2021/01/15 11:42:24;;;;;;;;;;;8.60;99.90;;;;;;5070744;28;19920;-89
2021/01/15 11:44:49;;;;;;;;;;;8.80;99.90;;;;;;5074316;28;19934;-90
2021/01/15 11:47:15;;;;;;;;;;;8.90;99.90;;;;;;5094504;28;19919;-90
2021/01/15 11:49:40;;;;;;;;;;;9.00;99.90;;;;;;5077756;28;20288;-90
2021/01/15 11:52:07;;;;;;;;;;;9.10;99.90;;;;;;5074281;28;20003;-89
2021/01/15 11:54:32;;;;;;;;;;;9.10;99.90;;;;;;5060122;28;20467;-90
2021/01/15 11:56:58;;;;;;;;;;;9.20;99.90;;;;;;5074111;28;20030;-89
2021/01/15 11:59:23;;;;;;;;;;;9.30;99.90;;;;;;5068557;28;19921;-89
2021/01/15 12:01:53;;;;;;;;;;;9.40;99.90;;;;;;5074595;28;19920;-91
2021/01/15 12:04:18;;;;;;;;;;;9.50;99.90;;;;;;5067719;28;19913;-89
2021/01/15 12:06:43;;;;;;;;;;;9.60;99.90;;;;;;5072425;28;19916;-90
2021/01/15 12:09:09;;;;;;;;;;;9.80;99.90;;;;;;5076455;28;20543;-90
2021/01/15 12:11:38;;;;;;;;;;;9.90;99.90;;;;;;5073384;28;20395;-89
2021/01/15 12:14:03;;;;;;;;;;;9.90;99.90;;;;;;5072380;28;19966;-89
2021/01/15 12:16:29;;;;;;;;;;;10.00;99.90;;;;;;5077272;28;19912;-88
2021/01/15 12:18:54;;;;;;;;;;;10.00;99.90;;;;;;5078708;28;20272;-89
2021/01/15 12:21:20;;;;;;;;;;;9.90;99.90;;;;;;5062899;28;19912;-88
2021/01/15 12:23:45;;;;;;;;;;;9.90;99.90;;;;;;5076181;28;19912;-88
2021/01/15 12:26:11;;;;;;;;;;;9.90;99.90;;;;;;5069476;28;19912;-90
2021/01/15 12:28:36;;;;;;;;;;;9.80;99.90;;;;;;5098356;28;19920;-88
2021/01/15 12:31:02;;;;;;;;;;;9.70;99.90;;;;;;5070675;28;19925;-88
2021/01/15 12:33:27;;;;;;;;;;;9.50;99.90;;;;;;5072355;28;19917;-90
2021/01/15 12:35:53;;;;;;;;;;;9.30;99.90;;;;;;5073364;28;20007;-89
2021/01/15 12:38:23;;;;;;;;;;;9.10;99.90;;;;;;5073743;28;19908;-89
2021/01/15 12:40:49;;;;;;;;;;;8.90;99.90;;;;;;5080706;28;19958;-89
2021/01/15 12:43:15;;;;;;;;;;;8.60;99.90;;;;;;5071112;28;20339;-89
2021/01/15 12:45:44;;;;;;;;;;;8.40;99.90;;;;;;5071263;28;19912;-88
2021/01/15 12:48:10;;;;;;;;;;;8.30;99.90;;;;;;5073365;28;19923;-88
2021/01/15 12:50:35;;;;;;;;;;;8.10;99.90;;;;;;5080684;28;20368;-88
2021/01/15 12:53:00;;;;;;;;;;;7.90;99.90;;;;;;5071325;28;19920;-88
2021/01/15 12:55:26;;;;;;;;;;;7.80;99.90;;;;;;5070277;28;19912;-88
2021/01/15 12:57:52;;;;;;;;;;;7.70;99.90;;;;;;5070788;28;19923;-88
2021/01/15 13:00:18;;;;;;;;;;;7.60;99.90;;;;;;5064619;28;19912;-88
2021/01/15 13:02:43;;;;;;;;;;;7.50;99.90;;;;;;5069092;28;20322;-88
2021/01/15 13:05:09;;;;;;;;;;;7.40;99.90;;;;;;5072193;28;19938;-89
2021/01/15 13:07:34;;;;;;;;;;;7.30;99.90;;;;;;5073156;28;19912;-87
2021/01/15 13:10:00;;;;;;;;;;;7.20;99.90;;;;;;5075084;28;19970;-86
2021/01/15 13:12:26;;;;;;;;;;;7.00;99.90;;;;;;5072769;28;19912;-89
2021/01/15 13:14:52;;;;;;;;;;;6.90;99.90;;;;;;5073597;28;19913;-89
2021/01/15 13:17:17;;;;;;;;;;;6.80;99.90;;;;;;5071740;28;19912;-89
2021/01/15 13:19:43;;;;;;;;;;;6.70;99.90;;;;;;5073636;28;19921;-89
2021/01/15 13:22:08;;;;;;;;;;;6.60;99.90;;;;;;5072226;28;19920;-89
2021/01/15 13:24:33;;;;;;;;;;;6.60;99.90;;;;;;5067284;28;19948;-89
2021/01/15 13:26:59;;;;;;;;;;;6.50;99.90;;;;;;5071545;28;19913;-88
2021/01/15 13:29:24;;;;;;;;;;;6.50;99.90;;;;;;5073331;28;20300;-89
2021/01/15 13:31:53;;;;;;;;;;;6.50;99.90;;;;;;5076165;28;20034;-89
2021/01/15 13:34:18;;;;;;;;;;;6.50;99.90;;;;;;5075057;28;19909;-89
2021/01/15 13:36:44;;;;;;;;;;;6.50;99.90;;;;;;5075794;28;20425;-89
2021/01/15 13:39:09;;;;;;;;;;;6.50;99.90;;;;;;5074654;28;20007;-89
2021/01/15 13:41:38;;;;;;;;;;;6.50;99.90;;;;;;5074696;28;19912;-89
2021/01/15 13:44:04;;;;;;;;;;;6.40;99.90;;;;;;5073618;28;19923;-89
2021/01/15 13:46:31;;;;;;;;;;;6.40;99.90;;;;;;5074429;28;20304;-88
2021/01/15 13:48:56;;;;;;;;;;;6.40;99.90;;;;;;5075524;28;19920;-88
2021/01/15 13:51:22;;;;;;;;;;;6.30;99.90;;;;;;5074257;28;19919;-88
2021/01/15 13:53:52;;;;;;;;;;;6.30;99.90;;;;;;5070619;28;19913;-89
2021/01/15 13:56:18;;;;;;;;;;;6.20;99.90;;;;;;5074183;28;19908;-89
2021/01/15 13:58:43;;;;;;;;;;;6.10;99.90;;;;;;5074770;28;20387;-88
2021/01/15 14:01:09;;;;;;;;;;;6.10;99.90;;;;;;5075291;28;20000;-88
2021/01/15 14:03:34;;;;;;;;;;;6.00;99.90;;;;;;5076077;28;19909;-88
2021/01/15 14:06:00;;;;;;;;;;;6.00;99.90;;;;;;5079367;28;19917;-88
2021/01/15 14:08:25;;;;;;;;;;;5.90;99.90;;;;;;5075095;28;19913;-89
2021/01/15 14:10:51;;;;;;;;;;;5.90;99.90;;;;;;5072595;28;19968;-88
2021/01/15 14:13:16;;;;;;;;;;;5.90;99.90;;;;;;5054409;28;19924;-89
2021/01/15 14:15:42;;;;;;;;;;;5.80;99.90;;;;;;5067411;28;20392;-89
2021/01/15 14:18:07;;;;;;;;;;;5.70;99.90;;;;;;5074161;28;19952;-89
2021/01/15 14:20:33;;;;;;;;;;;5.60;99.90;;;;;;5075731;28;19908;-89
2021/01/15 14:22:58;;;;;;;;;;;5.50;99.90;;;;;;5074210;28;19909;-89
2021/01/15 14:25:23;;;;;;;;;;;5.50;99.90;;;;;;5075264;28;19927;-89
2021/01/15 14:27:49;;;;;;;;;;;5.40;99.90;;;;;;5073922;28;19917;-87